sensor_id;sensor_type;location;lat;lon;timestamp;pressure;altitude;pressure_sealevel;temperature;humidity
53671;BME280;39571;48.612;8.088;2023-03-19T07:18:44;99732.38;;;12.76;100.00
53671;BME280;39571;48.612;8.088;2023-03-19T07:30:59;99732.03;;;13.29;92.76
53671;BME280;39571;48.612;8.088;2023-03-19T07:33:24;99734.34;;;13.41;89.71
53671;BME280;39571;48.612;8.088;2023-03-19T07:42:48;99732.50;;;13.79;88.53
53671;BME280;39571;48.612;8.088;2023-03-19T07:54:07;99741.03;;;13.87;85.23
53671;BME280;39571;48.612;8.088;2023-03-19T08:05:01;99739.09;;;13.93;86.57
53671;BME280;39571;48.612;8.088;2023-03-19T08:07:29;99742.34;;;14.03;85.23
53671;BME280;39571;48.612;8.088;2023-03-19T08:15:56;99748.69;;;14.27;83.44
53671;BME280;39571;48.612;8.088;2023-03-19T08:18:21;99748.53;;;14.33;82.54
53671;BME280;39571;48.612;8.088;2023-03-19T08:25:28;99756.16;;;14.43;82.65
53671;BME280;39571;48.612;8.088;2023-03-19T08:27:57;99756.06;;;14.46;81.41
53671;BME280;39571;48.612;8.088;2023-03-19T08:32:37;99758.84;;;14.70;81.07
53671;BME280;39571;48.612;8.088;2023-03-19T08:35:03;99757.22;;;14.95;79.78
53671;BME280;39571;48.612;8.088;2023-03-19T08:37:30;99758.97;;;15.22;79.29
53671;BME280;39571;48.612;8.088;2023-03-19T08:39:55;99751.25;;;15.42;77.58
53671;BME280;39571;48.612;8.088;2023-03-19T08:42:21;99754.66;;;15.72;76.24
53671;BME280;39571;48.612;8.088;2023-03-19T08:44:47;99748.09;;;15.84;75.47
53671;BME280;39571;48.612;8.088;2023-03-19T08:53:12;99738.44;;;21.79;59.44
53671;BME280;39571;48.612;8.088;2023-03-19T08:55:37;99737.66;;;23.33;48.97
53671;BME280;39571;48.612;8.088;2023-03-19T08:58:03;99735.97;;;22.91;47.13
53671;BME280;39571;48.612;8.088;2023-03-19T09:00:28;99728.25;;;24.56;43.00
53671;BME280;39571;48.612;8.088;2023-03-19T09:02:53;99726.00;;;25.94;38.61
53671;BME280;39571;48.612;8.088;2023-03-19T09:05:19;99735.50;;;27.43;35.20
53671;BME280;39571;48.612;8.088;2023-03-19T09:07:47;99735.28;;;27.78;33.04
53671;BME280;39571;48.612;8.088;2023-03-19T09:10:12;99726.84;;;28.84;32.07
53671;BME280;39571;48.612;8.088;2023-03-19T09:12:37;99728.16;;;29.68;30.05
53671;BME280;39571;48.612;8.088;2023-03-19T09:15:03;99724.84;;;29.45;29.90
53671;BME280;39571;48.612;8.088;2023-03-19T09:17:28;99719.94;;;29.89;29.56
53671;BME280;39571;48.612;8.088;2023-03-19T09:19:54;99721.19;;;29.85;29.14
53671;BME280;39571;48.612;8.088;2023-03-19T09:22:19;99725.59;;;28.98;29.77
53671;BME280;39571;48.612;8.088;2023-03-19T09:24:44;99719.03;;;28.51;31.12
53671;BME280;39571;48.612;8.088;2023-03-19T09:27:10;99721.09;;;29.08;29.78
53671;BME280;39571;48.612;8.088;2023-03-19T09:29:35;99730.56;;;30.56;29.00
53671;BME280;39571;48.612;8.088;2023-03-19T09:32:00;99723.53;;;27.79;30.57
53671;BME280;39571;48.612;8.088;2023-03-19T09:34:26;99732.78;;;25.29;33.80
53671;BME280;39571;48.612;8.088;2023-03-19T09:36:51;99741.13;;;23.61;36.16
53671;BME280;39571;48.612;8.088;2023-03-19T09:39:17;99748.34;;;21.47;39.83
53671;BME280;39571;48.612;8.088;2023-03-19T09:44:31;99766.78;;;19.17;47.24
53671;BME280;39571;48.612;8.088;2023-03-19T09:55:52;99774.50;;;16.80;65.68
53671;BME280;39571;48.612;8.088;2023-03-19T09:58:26;99770.47;;;16.93;68.36
53671;BME280;39571;48.612;8.088;2023-03-19T10:00:55;99777.59;;;16.91;70.75
53671;BME280;39571;48.612;8.088;2023-03-19T10:06:27;99769.63;;;17.14;72.44
53671;BME280;39571;48.612;8.088;2023-03-19T10:09:24;99766.31;;;17.09;72.51
53671;BME280;39571;48.612;8.088;2023-03-19T10:15:00;99764.22;;;17.17;74.99
53671;BME280;39571;48.612;8.088;2023-03-19T10:17:40;99770.91;;;17.04;74.22
53671;BME280;39571;48.612;8.088;2023-03-19T10:20:16;99760.16;;;17.08;76.01
53671;BME280;39571;48.612;8.088;2023-03-19T10:22:47;99773.88;;;17.18;75.60
53671;BME280;39571;48.612;8.088;2023-03-19T10:25:22;99773.69;;;17.44;75.53
53671;BME280;39571;48.612;8.088;2023-03-19T10:27:55;99764.34;;;17.57;75.02
53671;BME280;39571;48.612;8.088;2023-03-19T10:30:23;99759.41;;;17.48;76.36
53671;BME280;39571;48.612;8.088;2023-03-19T10:32:53;99769.50;;;17.17;76.89
53671;BME280;39571;48.612;8.088;2023-03-19T10:35:36;99770.25;;;16.99;78.58
53671;BME280;39571;48.612;8.088;2023-03-19T10:38:20;99774.31;;;16.86;80.10
53671;BME280;39571;48.612;8.088;2023-03-19T10:41:18;99775.91;;;16.66;83.65
53671;BME280;39571;48.612;8.088;2023-03-19T10:43:53;99770.88;;;16.60;85.42
53671;BME280;39571;48.612;8.088;2023-03-19T10:46:20;99770.16;;;16.55;86.32
53671;BME280;39571;48.612;8.088;2023-03-19T10:48:46;99775.66;;;16.49;87.55
53671;BME280;39571;48.612;8.088;2023-03-19T10:51:21;99777.28;;;16.29;89.31
53671;BME280;39571;48.612;8.088;2023-03-19T10:53:52;99778.38;;;16.23;89.59
53671;BME280;39571;48.612;8.088;2023-03-19T10:56:20;99776.13;;;16.12;92.00
53671;BME280;39571;48.612;8.088;2023-03-19T10:58:57;99782.38;;;15.85;92.84
53671;BME280;39571;48.612;8.088;2023-03-19T11:01:32;99787.84;;;15.79;97.13
53671;BME280;39571;48.612;8.088;2023-03-19T11:04:01;99790.69;;;15.73;99.13
53671;BME280;39571;48.612;8.088;2023-03-19T11:06:31;99778.47;;;15.71;100.00
53671;BME280;39571;48.612;8.088;2023-03-19T11:15:29;99787.47;;;15.65;100.00
53671;BME280;39571;48.612;8.088;2023-03-19T11:17:58;99784.06;;;15.61;100.00
53671;BME280;39571;48.612;8.088;2023-03-19T11:20:31;99797.16;;;15.64;100.00
53671;BME280;39571;48.612;8.088;2023-03-19T11:22:59;99796.53;;;15.56;100.00
53671;BME280;39571;48.612;8.088;2023-03-19T11:25:36;99794.63;;;15.61;100.00
53671;BME280;39571;48.612;8.088;2023-03-19T11:28:12;99788.94;;;15.74;100.00
53671;BME280;39571;48.612;8.088;2023-03-19T11:33:34;99794.03;;;15.52;100.00
53671;BME280;39571;48.612;8.088;2023-03-19T11:41:30;99791.53;;;15.75;100.00
